sensor_id;sensor_type;location;lat;lon;timestamp;P1;durP1;ratioP1;P2;durP2;ratioP2
57697;SDS011;43531;52.152;6.366;2022-12-18T00:00:06;97.68;;;42.78;;
57697;SDS011;43531;52.152;6.366;2022-12-18T00:00:44;100.40;;;42.60;;
57697;SDS011;43531;52.152;6.366;2022-12-18T00:01:20;94.14;;;40.82;;
57697;SDS011;43531;52.152;6.366;2022-12-18T00:01:58;104.78;;;43.97;;
57697;SDS011;43531;52.152;6.366;2022-12-18T00:02:31;109.00;;;44.78;;
57697;SDS011;43531;52.152;6.366;2022-12-18T00:03:03;97.64;;;42.02;;
57697;SDS011;43531;52.152;6.366;2022-12-18T00:03:35;94.40;;;42.60;;
57697;SDS011;43531;52.152;6.366;2022-12-18T00:04:11;93.72;;;42.76;;
57697;SDS011;43531;52.152;6.366;2022-12-18T00:04:48;90.45;;;42.40;;
57697;SDS011;43531;52.152;6.366;2022-12-18T00:05:19;93.92;;;41.60;;
57697;SDS011;43531;52.152;6.366;2022-12-18T00:05:51;100.50;;;42.36;;
57697;SDS011;43531;52.152;6.366;2022-12-18T00:06:23;96.74;;;41.04;;
57697;SDS011;43531;52.152;6.366;2022-12-18T00:06:56;100.24;;;40.94;;
57697;SDS011;43531;52.152;6.366;2022-12-18T00:07:28;91.96;;;42.22;;
57697;SDS011;43531;52.152;6.366;2022-12-18T00:07:59;99.88;;;42.66;;
57697;SDS011;43531;52.152;6.366;2022-12-18T00:08:32;91.02;;;43.14;;
57697;SDS011;43531;52.152;6.366;2022-12-18T00:09:03;89.30;;;42.22;;
57697;SDS011;43531;52.152;6.366;2022-12-18T00:09:35;90.74;;;42.64;;
57697;SDS011;43531;52.152;6.366;2022-12-18T00:10:10;94.96;;;41.36;;
57697;SDS011;43531;52.152;6.366;2022-12-18T00:10:48;98.08;;;43.78;;
57697;SDS011;43531;52.152;6.366;2022-12-18T00:11:23;97.82;;;41.92;;
57697;SDS011;43531;52.152;6.366;2022-12-18T00:11:57;92.26;;;40.12;;
57697;SDS011;43531;52.152;6.366;2022-12-18T00:12:29;88.56;;;41.30;;
57697;SDS011;43531;52.152;6.366;2022-12-18T00:13:00;93.14;;;41.42;;
57697;SDS011;43531;52.152;6.366;2022-12-18T00:13:38;96.34;;;42.98;;
57697;SDS011;43531;52.152;6.366;2022-12-18T00:14:11;91.74;;;41.96;;
57697;SDS011;43531;52.152;6.366;2022-12-18T00:14:43;94.22;;;39.32;;
57697;SDS011;43531;52.152;6.366;2022-12-18T00:15:15;94.74;;;40.26;;
57697;SDS011;43531;52.152;6.366;2022-12-18T00:15:47;91.98;;;38.92;;
57697;SDS011;43531;52.152;6.366;2022-12-18T00:16:19;90.12;;;38.26;;
57697;SDS011;43531;52.152;6.366;2022-12-18T00:16:52;78.88;;;40.52;;
57697;SDS011;43531;52.152;6.366;2022-12-18T00:17:24;88.78;;;43.50;;
57697;SDS011;43531;52.152;6.366;2022-12-18T00:17:55;91.62;;;39.30;;
57697;SDS011;43531;52.152;6.366;2022-12-18T00:18:27;92.68;;;40.62;;
57697;SDS011;43531;52.152;6.366;2022-12-18T00:18:59;81.24;;;38.08;;
57697;SDS011;43531;52.152;6.366;2022-12-18T00:19:31;84.22;;;38.86;;
57697;SDS011;43531;52.152;6.366;2022-12-18T00:20:02;90.00;;;39.84;;
57697;SDS011;43531;52.152;6.366;2022-12-18T00:20:38;83.48;;;39.82;;
57697;SDS011;43531;52.152;6.366;2022-12-18T00:21:13;88.88;;;38.38;;
57697;SDS011;43531;52.152;6.366;2022-12-18T00:21:45;86.40;;;37.96;;
57697;SDS011;43531;52.152;6.366;2022-12-18T00:22:17;91.10;;;39.08;;
57697;SDS011;43531;52.152;6.366;2022-12-18T00:22:48;81.52;;;36.82;;
57697;SDS011;43531;52.152;6.366;2022-12-18T00:23:23;91.96;;;39.02;;
57697;SDS011;43531;52.152;6.366;2022-12-18T00:23:55;93.76;;;42.26;;
57697;SDS011;43531;52.152;6.366;2022-12-18T00:24:26;86.44;;;38.32;;
57697;SDS011;43531;52.152;6.366;2022-12-18T00:24:58;91.10;;;40.36;;
57697;SDS011;43531;52.152;6.366;2022-12-18T00:25:29;76.66;;;40.98;;
57697;SDS011;43531;52.152;6.366;2022-12-18T00:26:01;90.96;;;39.32;;
57697;SDS011;43531;52.152;6.366;2022-12-18T00:26:35;82.58;;;39.02;;
57697;SDS011;43531;52.152;6.366;2022-12-18T00:27:08;98.00;;;41.52;;
57697;SDS011;43531;52.152;6.366;2022-12-18T00:27:40;82.64;;;39.90;;
57697;SDS011;43531;52.152;6.366;2022-12-18T00:28:11;91.90;;;41.32;;
57697;SDS011;43531;52.152;6.366;2022-12-18T00:28:43;86.18;;;38.82;;
57697;SDS011;43531;52.152;6.366;2022-12-18T00:29:15;93.46;;;42.40;;
57697;SDS011;43531;52.152;6.366;2022-12-18T00:29:47;106.76;;;44.66;;
57697;SDS011;43531;52.152;6.366;2022-12-18T00:30:19;98.86;;;42.04;;
57697;SDS011;43531;52.152;6.366;2022-12-18T00:30:51;98.86;;;42.26;;
57697;SDS011;43531;52.152;6.366;2022-12-18T00:31:23;93.24;;;40.72;;
57697;SDS011;43531;52.152;6.366;2022-12-18T00:31:57;98.60;;;41.92;;
57697;SDS011;43531;52.152;6.366;2022-12-18T00:32:29;96.20;;;43.50;;
57697;SDS011;43531;52.152;6.366;2022-12-18T00:33:01;102.50;;;44.24;;
57697;SDS011;43531;52.152;6.366;2022-12-18T00:33:33;96.68;;;41.58;;
57697;SDS011;43531;52.152;6.366;2022-12-18T00:34:05;93.40;;;41.16;;
57697;SDS011;43531;52.152;6.366;2022-12-18T00:34:37;86.94;;;42.64;;
57697;SDS011;43531;52.152;6.366;2022-12-18T00:35:08;88.34;;;41.10;;
57697;SDS011;43531;52.152;6.366;2022-12-18T00:35:40;96.52;;;41.60;;
57697;SDS011;43531;52.152;6.366;2022-12-18T00:36:44;100.28;;;43.64;;
57697;SDS011;43531;52.152;6.366;2022-12-18T00:37:18;97.06;;;41.26;;
57697;SDS011;43531;52.152;6.366;2022-12-18T00:37:54;98.64;;;42.14;;
57697;SDS011;43531;52.152;6.366;2022-12-18T00:38:27;97.90;;;42.68;;
57697;SDS011;43531;52.152;6.366;2022-12-18T00:38:59;95.82;;;42.98;;
57697;SDS011;43531;52.152;6.366;2022-12-18T00:39:31;92.64;;;41.66;;
57697;SDS011;43531;52.152;6.366;2022-12-18T00:40:03;91.40;;;38.96;;
57697;SDS011;43531;52.152;6.366;2022-12-18T00:40:35;91.26;;;39.58;;
57697;SDS011;43531;52.152;6.366;2022-12-18T00:41:07;85.86;;;38.54;;
57697;SDS011;43531;52.152;6.366;2022-12-18T00:41:39;86.48;;;37.88;;
57697;SDS011;43531;52.152;6.366;2022-12-18T00:42:30;88.44;;;41.54;;
57697;SDS011;43531;52.152;6.366;2022-12-18T00:43:20;78.80;;;36.04;;
57697;SDS011;43531;52.152;6.366;2022-12-18T00:43:52;81.78;;;38.18;;
57697;SDS011;43531;52.152;6.366;2022-12-18T00:44:23;84.76;;;38.58;;
57697;SDS011;43531;52.152;6.366;2022-12-18T00:44:55;88.26;;;38.26;;
57697;SDS011;43531;52.152;6.366;2022-12-18T00:45:29;79.34;;;39.24;;
57697;SDS011;43531;52.152;6.366;2022-12-18T00:46:02;95.86;;;39.10;;
57697;SDS011;43531;52.152;6.366;2022-12-18T00:46:35;95.38;;;40.82;;
57697;SDS011;43531;52.152;6.366;2022-12-18T00:47:07;93.20;;;38.18;;
57697;SDS011;43531;52.152;6.366;2022-12-18T00:47:39;78.98;;;38.74;;
57697;SDS011;43531;52.152;6.366;2022-12-18T00:48:11;88.12;;;41.18;;
57697;SDS011;43531;52.152;6.366;2022-12-18T00:48:43;86.32;;;40.14;;
57697;SDS011;43531;52.152;6.366;2022-12-18T00:49:16;77.08;;;37.86;;
57697;SDS011;43531;52.152;6.366;2022-12-18T00:49:49;78.96;;;38.32;;
57697;SDS011;43531;52.152;6.366;2022-12-18T00:50:22;82.90;;;40.06;;
57697;SDS011;43531;52.152;6.366;2022-12-18T00:50:54;88.08;;;41.22;;
57697;SDS011;43531;52.152;6.366;2022-12-18T00:51:26;75.90;;;37.12;;
57697;SDS011;43531;52.152;6.366;2022-12-18T00:51:58;79.08;;;39.00;;
57697;SDS011;43531;52.152;6.366;2022-12-18T00:52:30;81.08;;;40.36;;
57697;SDS011;43531;52.152;6.366;2022-12-18T00:53:01;83.86;;;38.72;;
57697;SDS011;43531;52.152;6.366;2022-12-18T00:53:33;85.86;;;40.16;;
57697;SDS011;43531;52.152;6.366;2022-12-18T00:54:04;86.24;;;40.56;;
57697;SDS011;43531;52.152;6.366;2022-12-18T00:54:36;89.44;;;41.76;;
57697;SDS011;43531;52.152;6.366;2022-12-18T00:55:07;86.24;;;39.58;;
57697;SDS011;43531;52.152;6.366;2022-12-18T00:55:40;93.76;;;41.32;;
57697;SDS011;43531;52.152;6.366;2022-12-18T00:56:12;82.32;;;42.26;;
57697;SDS011;43531;52.152;6.366;2022-12-18T00:56:43;88.22;;;41.34;;
57697;SDS011;43531;52.152;6.366;2022-12-18T00:57:20;90.62;;;41.08;;
57697;SDS011;43531;52.152;6.366;2022-12-18T00:57:52;92.18;;;42.36;;
57697;SDS011;43531;52.152;6.366;2022-12-18T00:58:23;87.58;;;38.06;;
57697;SDS011;43531;52.152;6.366;2022-12-18T00:58:55;97.76;;;41.66;;
57697;SDS011;43531;52.152;6.366;2022-12-18T00:59:27;88.42;;;39.44;;
57697;SDS011;43531;52.152;6.366;2022-12-18T00:59:59;93.10;;;41.76;;
57697;SDS011;43531;52.152;6.366;2022-12-18T01:00:31;89.00;;;42.88;;
57697;SDS011;43531;52.152;6.366;2022-12-18T01:01:06;90.22;;;43.32;;
57697;SDS011;43531;52.152;6.366;2022-12-18T01:01:38;96.08;;;42.22;;
57697;SDS011;43531;52.152;6.366;2022-12-18T01:02:10;88.64;;;38.70;;
57697;SDS011;43531;52.152;6.366;2022-12-18T01:02:44;98.24;;;43.14;;
57697;SDS011;43531;52.152;6.366;2022-12-18T01:03:16;104.72;;;47.78;;
57697;SDS011;43531;52.152;6.366;2022-12-18T01:03:48;85.68;;;39.98;;
57697;SDS011;43531;52.152;6.366;2022-12-18T01:04:20;90.08;;;40.46;;
57697;SDS011;43531;52.152;6.366;2022-12-18T01:04:51;90.64;;;43.28;;
57697;SDS011;43531;52.152;6.366;2022-12-18T01:05:23;99.66;;;43.24;;
57697;SDS011;43531;52.152;6.366;2022-12-18T01:05:56;95.16;;;42.42;;
57697;SDS011;43531;52.152;6.366;2022-12-18T01:06:28;88.68;;;41.92;;
57697;SDS011;43531;52.152;6.366;2022-12-18T01:07:00;92.72;;;39.94;;
57697;SDS011;43531;52.152;6.366;2022-12-18T01:07:31;92.22;;;40.94;;
57697;SDS011;43531;52.152;6.366;2022-12-18T01:08:03;100.14;;;44.28;;
57697;SDS011;43531;52.152;6.366;2022-12-18T01:08:35;100.92;;;44.22;;
57697;SDS011;43531;52.152;6.366;2022-12-18T01:09:07;103.56;;;44.02;;
57697;SDS011;43531;52.152;6.366;2022-12-18T01:09:40;89.46;;;43.36;;
57697;SDS011;43531;52.152;6.366;2022-12-18T01:10:18;88.84;;;42.40;;
57697;SDS011;43531;52.152;6.366;2022-12-18T01:10:49;98.84;;;44.62;;
57697;SDS011;43531;52.152;6.366;2022-12-18T01:11:21;95.94;;;40.66;;
57697;SDS011;43531;52.152;6.366;2022-12-18T01:11:53;88.58;;;43.92;;
57697;SDS011;43531;52.152;6.366;2022-12-18T01:12:24;106.94;;;43.54;;
57697;SDS011;43531;52.152;6.366;2022-12-18T01:12:56;96.50;;;43.14;;
57697;SDS011;43531;52.152;6.366;2022-12-18T01:13:28;96.04;;;42.26;;
57697;SDS011;43531;52.152;6.366;2022-12-18T01:13:59;97.84;;;43.32;;
57697;SDS011;43531;52.152;6.366;2022-12-18T01:14:31;84.74;;;40.56;;
57697;SDS011;43531;52.152;6.366;2022-12-18T01:15:03;96.70;;;43.10;;
57697;SDS011;43531;52.152;6.366;2022-12-18T01:15:36;97.76;;;43.32;;
57697;SDS011;43531;52.152;6.366;2022-12-18T01:16:08;99.96;;;44.06;;
57697;SDS011;43531;52.152;6.366;2022-12-18T01:16:42;93.66;;;44.78;;
57697;SDS011;43531;52.152;6.366;2022-12-18T01:17:14;88.96;;;42.64;;
57697;SDS011;43531;52.152;6.366;2022-12-18T01:17:47;95.48;;;42.26;;
57697;SDS011;43531;52.152;6.366;2022-12-18T01:18:19;81.08;;;40.54;;
57697;SDS011;43531;52.152;6.366;2022-12-18T01:18:51;108.62;;;44.50;;
57697;SDS011;43531;52.152;6.366;2022-12-18T01:19:24;106.06;;;42.94;;
57697;SDS011;43531;52.152;6.366;2022-12-18T01:19:56;97.22;;;43.76;;
57697;SDS011;43531;52.152;6.366;2022-12-18T01:20:28;95.06;;;43.06;;
57697;SDS011;43531;52.152;6.366;2022-12-18T01:20:59;93.16;;;42.40;;
57697;SDS011;43531;52.152;6.366;2022-12-18T01:21:31;99.00;;;40.54;;
57697;SDS011;43531;52.152;6.366;2022-12-18T01:22:07;95.66;;;44.78;;
57697;SDS011;43531;52.152;6.366;2022-12-18T01:22:39;92.04;;;43.92;;
57697;SDS011;43531;52.152;6.366;2022-12-18T01:23:11;93.16;;;41.14;;
57697;SDS011;43531;52.152;6.366;2022-12-18T01:23:46;90.64;;;44.38;;
57697;SDS011;43531;52.152;6.366;2022-12-18T01:24:17;105.84;;;41.40;;
57697;SDS011;43531;52.152;6.366;2022-12-18T01:24:49;88.06;;;40.88;;
57697;SDS011;43531;52.152;6.366;2022-12-18T01:25:21;90.10;;;39.78;;
57697;SDS011;43531;52.152;6.366;2022-12-18T01:25:54;100.90;;;42.94;;
57697;SDS011;43531;52.152;6.366;2022-12-18T01:26:26;92.66;;;44.08;;
57697;SDS011;43531;52.152;6.366;2022-12-18T01:27:00;94.80;;;39.26;;
57697;SDS011;43531;52.152;6.366;2022-12-18T01:27:33;94.84;;;44.14;;
57697;SDS011;43531;52.152;6.366;2022-12-18T01:28:07;93.84;;;40.30;;
57697;SDS011;43531;52.152;6.366;2022-12-18T01:28:38;93.96;;;41.24;;
57697;SDS011;43531;52.152;6.366;2022-12-18T01:29:11;92.58;;;43.78;;
57697;SDS011;43531;52.152;6.366;2022-12-18T01:29:43;86.24;;;41.60;;
57697;SDS011;43531;52.152;6.366;2022-12-18T01:30:14;88.18;;;44.16;;
57697;SDS011;43531;52.152;6.366;2022-12-18T01:30:46;90.20;;;42.56;;
57697;SDS011;43531;52.152;6.366;2022-12-18T01:31:24;84.44;;;40.76;;
57697;SDS011;43531;52.152;6.366;2022-12-18T01:31:58;70.70;;;37.53;;
57697;SDS011;43531;52.152;6.366;2022-12-18T01:32:30;86.90;;;42.82;;
57697;SDS011;43531;52.152;6.366;2022-12-18T01:33:03;79.02;;;39.18;;
57697;SDS011;43531;52.152;6.366;2022-12-18T01:33:35;85.38;;;39.48;;
57697;SDS011;43531;52.152;6.366;2022-12-18T01:34:09;80.44;;;38.50;;
57697;SDS011;43531;52.152;6.366;2022-12-18T01:34:41;83.36;;;38.66;;
57697;SDS011;43531;52.152;6.366;2022-12-18T01:35:13;92.16;;;40.18;;
57697;SDS011;43531;52.152;6.366;2022-12-18T01:35:45;83.94;;;39.32;;
57697;SDS011;43531;52.152;6.366;2022-12-18T01:36:19;74.80;;;35.98;;
57697;SDS011;43531;52.152;6.366;2022-12-18T01:36:52;80.92;;;38.00;;
57697;SDS011;43531;52.152;6.366;2022-12-18T01:37:23;73.60;;;38.36;;
57697;SDS011;43531;52.152;6.366;2022-12-18T01:37:55;85.22;;;38.90;;
57697;SDS011;43531;52.152;6.366;2022-12-18T01:38:27;87.70;;;40.64;;
57697;SDS011;43531;52.152;6.366;2022-12-18T01:39:06;72.62;;;37.92;;
57697;SDS011;43531;52.152;6.366;2022-12-18T01:40:43;71.14;;;34.02;;
57697;SDS011;43531;52.152;6.366;2022-12-18T01:41:16;91.16;;;39.88;;
57697;SDS011;43531;52.152;6.366;2022-12-18T01:41:53;83.76;;;39.34;;
57697;SDS011;43531;52.152;6.366;2022-12-18T01:42:37;84.92;;;39.76;;
57697;SDS011;43531;52.152;6.366;2022-12-18T01:43:09;75.42;;;37.46;;
57697;SDS011;43531;52.152;6.366;2022-12-18T01:43:51;78.36;;;38.40;;
57697;SDS011;43531;52.152;6.366;2022-12-18T01:45:28;81.14;;;39.88;;
57697;SDS011;43531;52.152;6.366;2022-12-18T01:46:02;79.70;;;38.60;;
57697;SDS011;43531;52.152;6.366;2022-12-18T01:46:34;81.46;;;38.20;;
57697;SDS011;43531;52.152;6.366;2022-12-18T01:47:06;81.94;;;37.60;;
57697;SDS011;43531;52.152;6.366;2022-12-18T01:47:48;85.84;;;37.52;;
57697;SDS011;43531;52.152;6.366;2022-12-18T01:48:21;94.52;;;42.58;;
57697;SDS011;43531;52.152;6.366;2022-12-18T01:48:59;78.92;;;40.48;;
57697;SDS011;43531;52.152;6.366;2022-12-18T01:49:32;88.44;;;39.86;;
57697;SDS011;43531;52.152;6.366;2022-12-18T01:50:06;88.56;;;40.34;;
57697;SDS011;43531;52.152;6.366;2022-12-18T01:50:41;84.38;;;41.10;;
57697;SDS011;43531;52.152;6.366;2022-12-18T01:51:14;82.14;;;40.08;;
57697;SDS011;43531;52.152;6.366;2022-12-18T01:51:45;89.80;;;41.30;;
57697;SDS011;43531;52.152;6.366;2022-12-18T01:52:18;82.60;;;40.90;;
57697;SDS011;43531;52.152;6.366;2022-12-18T01:52:52;85.42;;;39.56;;
57697;SDS011;43531;52.152;6.366;2022-12-18T01:53:25;77.76;;;39.90;;
57697;SDS011;43531;52.152;6.366;2022-12-18T01:53:57;73.80;;;38.52;;
57697;SDS011;43531;52.152;6.366;2022-12-18T01:54:30;88.28;;;37.14;;
57697;SDS011;43531;52.152;6.366;2022-12-18T01:55:02;82.52;;;39.24;;
57697;SDS011;43531;52.152;6.366;2022-12-18T01:55:40;92.62;;;41.20;;
57697;SDS011;43531;52.152;6.366;2022-12-18T01:56:22;75.40;;;37.04;;
57697;SDS011;43531;52.152;6.366;2022-12-18T01:56:54;90.44;;;37.68;;
57697;SDS011;43531;52.152;6.366;2022-12-18T01:57:26;81.20;;;36.90;;
57697;SDS011;43531;52.152;6.366;2022-12-18T01:57:58;79.32;;;38.70;;
57697;SDS011;43531;52.152;6.366;2022-12-18T01:59:08;81.66;;;39.98;;
57697;SDS011;43531;52.152;6.366;2022-12-18T01:59:42;78.24;;;39.20;;
57697;SDS011;43531;52.152;6.366;2022-12-18T02:00:16;73.06;;;37.80;;
57697;SDS011;43531;52.152;6.366;2022-12-18T02:00:48;82.54;;;39.68;;
57697;SDS011;43531;52.152;6.366;2022-12-18T02:01:23;66.32;;;37.88;;
57697;SDS011;43531;52.152;6.366;2022-12-18T02:01:55;82.04;;;37.94;;
57697;SDS011;43531;52.152;6.366;2022-12-18T02:02:28;85.02;;;41.66;;
57697;SDS011;43531;52.152;6.366;2022-12-18T02:03:01;86.02;;;40.56;;
57697;SDS011;43531;52.152;6.366;2022-12-18T02:03:33;91.50;;;39.10;;
57697;SDS011;43531;52.152;6.366;2022-12-18T02:04:23;88.72;;;40.00;;
57697;SDS011;43531;52.152;6.366;2022-12-18T02:04:56;76.70;;;37.54;;
57697;SDS011;43531;52.152;6.366;2022-12-18T02:06:15;78.70;;;38.97;;
57697;SDS011;43531;52.152;6.366;2022-12-18T02:07:25;70.72;;;37.82;;
57697;SDS011;43531;52.152;6.366;2022-12-18T02:08:08;79.36;;;38.20;;
57697;SDS011;43531;52.152;6.366;2022-12-18T02:09:15;76.96;;;37.34;;
57697;SDS011;43531;52.152;6.366;2022-12-18T02:10:13;74.84;;;39.66;;
57697;SDS011;43531;52.152;6.366;2022-12-18T02:10:53;78.18;;;37.46;;
57697;SDS011;43531;52.152;6.366;2022-12-18T02:12:23;79.50;;;38.94;;
57697;SDS011;43531;52.152;6.366;2022-12-18T02:13:18;88.20;;;37.97;;
57697;SDS011;43531;52.152;6.366;2022-12-18T02:15:05;70.52;;;36.58;;
57697;SDS011;43531;52.152;6.366;2022-12-18T02:17:32;79.66;;;35.86;;
57697;SDS011;43531;52.152;6.366;2022-12-18T02:18:24;71.20;;;35.50;;
57697;SDS011;43531;52.152;6.366;2022-12-18T02:19:00;77.90;;;36.56;;
57697;SDS011;43531;52.152;6.366;2022-12-18T02:20:28;72.85;;;38.03;;
57697;SDS011;43531;52.152;6.366;2022-12-18T02:22:56;75.26;;;37.44;;
57697;SDS011;43531;52.152;6.366;2022-12-18T02:23:50;78.26;;;38.74;;
57697;SDS011;43531;52.152;6.366;2022-12-18T02:26:41;80.07;;;37.60;;
57697;SDS011;43531;52.152;6.366;2022-12-18T02:27:18;82.54;;;37.06;;
57697;SDS011;43531;52.152;6.366;2022-12-18T02:27:50;86.52;;;37.46;;
57697;SDS011;43531;52.152;6.366;2022-12-18T02:28:25;84.94;;;36.06;;
57697;SDS011;43531;52.152;6.366;2022-12-18T02:29:04;81.04;;;38.48;;
57697;SDS011;43531;52.152;6.366;2022-12-18T02:29:52;75.50;;;36.72;;
57697;SDS011;43531;52.152;6.366;2022-12-18T02:30:31;70.58;;;33.56;;
57697;SDS011;43531;52.152;6.366;2022-12-18T02:31:06;79.90;;;37.52;;
57697;SDS011;43531;52.152;6.366;2022-12-18T02:31:42;78.68;;;36.22;;
57697;SDS011;43531;52.152;6.366;2022-12-18T02:32:18;72.90;;;35.26;;
57697;SDS011;43531;52.152;6.366;2022-12-18T02:32:53;75.60;;;38.00;;
57697;SDS011;43531;52.152;6.366;2022-12-18T02:33:27;82.70;;;38.08;;
57697;SDS011;43531;52.152;6.366;2022-12-18T02:34:00;74.34;;;36.08;;
57697;SDS011;43531;52.152;6.366;2022-12-18T02:34:39;75.86;;;36.68;;
57697;SDS011;43531;52.152;6.366;2022-12-18T02:35:17;77.64;;;37.58;;
57697;SDS011;43531;52.152;6.366;2022-12-18T02:35:55;64.26;;;34.84;;
57697;SDS011;43531;52.152;6.366;2022-12-18T02:36:29;71.94;;;36.24;;
57697;SDS011;43531;52.152;6.366;2022-12-18T02:37:04;74.48;;;36.00;;
57697;SDS011;43531;52.152;6.366;2022-12-18T02:37:39;68.46;;;35.76;;
57697;SDS011;43531;52.152;6.366;2022-12-18T02:38:11;73.34;;;34.42;;
57697;SDS011;43531;52.152;6.366;2022-12-18T02:38:45;69.34;;;36.72;;
57697;SDS011;43531;52.152;6.366;2022-12-18T02:39:19;67.50;;;37.30;;
57697;SDS011;43531;52.152;6.366;2022-12-18T02:40:01;81.48;;;37.56;;
57697;SDS011;43531;52.152;6.366;2022-12-18T02:40:36;67.44;;;36.64;;
57697;SDS011;43531;52.152;6.366;2022-12-18T02:41:12;63.58;;;32.78;;
57697;SDS011;43531;52.152;6.366;2022-12-18T02:41:45;71.86;;;34.96;;
57697;SDS011;43531;52.152;6.366;2022-12-18T02:42:17;69.50;;;36.48;;
57697;SDS011;43531;52.152;6.366;2022-12-18T02:42:51;66.56;;;35.80;;
57697;SDS011;43531;52.152;6.366;2022-12-18T02:43:24;78.50;;;40.24;;
57697;SDS011;43531;52.152;6.366;2022-12-18T02:43:59;75.36;;;36.48;;
57697;SDS011;43531;52.152;6.366;2022-12-18T02:44:35;69.22;;;33.84;;
57697;SDS011;43531;52.152;6.366;2022-12-18T02:45:14;62.78;;;36.74;;
57697;SDS011;43531;52.152;6.366;2022-12-18T02:45:47;71.18;;;35.42;;
57697;SDS011;43531;52.152;6.366;2022-12-18T02:46:33;64.20;;;36.28;;
57697;SDS011;43531;52.152;6.366;2022-12-18T02:47:12;72.60;;;35.46;;
57697;SDS011;43531;52.152;6.366;2022-12-18T02:47:47;67.74;;;33.82;;
57697;SDS011;43531;52.152;6.366;2022-12-18T02:48:31;61.02;;;34.36;;
57697;SDS011;43531;52.152;6.366;2022-12-18T02:50:42;70.08;;;35.18;;
57697;SDS011;43531;52.152;6.366;2022-12-18T02:51:19;69.36;;;35.58;;
57697;SDS011;43531;52.152;6.366;2022-12-18T02:53:30;79.64;;;37.48;;
57697;SDS011;43531;52.152;6.366;2022-12-18T02:54:10;75.86;;;36.70;;
57697;SDS011;43531;52.152;6.366;2022-12-18T02:55:02;73.20;;;36.94;;
57697;SDS011;43531;52.152;6.366;2022-12-18T02:56:33;72.26;;;34.46;;
57697;SDS011;43531;52.152;6.366;2022-12-18T02:57:13;72.10;;;34.72;;
57697;SDS011;43531;52.152;6.366;2022-12-18T02:57:51;69.08;;;33.36;;
57697;SDS011;43531;52.152;6.366;2022-12-18T02:58:37;74.46;;;37.62;;
57697;SDS011;43531;52.152;6.366;2022-12-18T02:59:33;73.34;;;35.32;;
57697;SDS011;43531;52.152;6.366;2022-12-18T03:00:23;70.30;;;32.74;;
57697;SDS011;43531;52.152;6.366;2022-12-18T03:02:33;69.62;;;35.88;;
57697;SDS011;43531;52.152;6.366;2022-12-18T03:03:43;77.58;;;37.86;;
57697;SDS011;43531;52.152;6.366;2022-12-18T03:04:19;77.34;;;38.72;;
57697;SDS011;43531;52.152;6.366;2022-12-18T03:05:53;68.42;;;36.26;;
57697;SDS011;43531;52.152;6.366;2022-12-18T03:06:32;71.26;;;35.88;;
57697;SDS011;43531;52.152;6.366;2022-12-18T03:07:09;82.76;;;36.28;;
57697;SDS011;43531;52.152;6.366;2022-12-18T03:07:49;62.10;;;33.80;;
57697;SDS011;43531;52.152;6.366;2022-12-18T03:08:26;74.52;;;35.54;;
57697;SDS011;43531;52.152;6.366;2022-12-18T03:09:04;73.32;;;40.12;;
57697;SDS011;43531;52.152;6.366;2022-12-18T03:09:43;79.28;;;35.82;;
57697;SDS011;43531;52.152;6.366;2022-12-18T03:10:19;67.64;;;35.32;;
57697;SDS011;43531;52.152;6.366;2022-12-18T03:11:37;69.04;;;35.14;;
57697;SDS011;43531;52.152;6.366;2022-12-18T03:12:30;74.96;;;34.58;;
57697;SDS011;43531;52.152;6.366;2022-12-18T03:13:05;72.28;;;36.56;;
57697;SDS011;43531;52.152;6.366;2022-12-18T03:13:40;66.40;;;33.26;;
57697;SDS011;43531;52.152;6.366;2022-12-18T03:14:17;79.30;;;36.28;;
57697;SDS011;43531;52.152;6.366;2022-12-18T03:14:57;79.28;;;34.84;;
57697;SDS011;43531;52.152;6.366;2022-12-18T03:15:37;63.08;;;33.82;;
57697;SDS011;43531;52.152;6.366;2022-12-18T03:16:15;73.08;;;35.84;;
57697;SDS011;43531;52.152;6.366;2022-12-18T03:16:54;60.88;;;33.94;;
57697;SDS011;43531;52.152;6.366;2022-12-18T03:17:30;70.68;;;35.68;;
57697;SDS011;43531;52.152;6.366;2022-12-18T03:18:04;63.44;;;34.76;;
57697;SDS011;43531;52.152;6.366;2022-12-18T03:18:57;66.68;;;35.08;;
57697;SDS011;43531;52.152;6.366;2022-12-18T03:19:32;70.14;;;34.46;;
57697;SDS011;43531;52.152;6.366;2022-12-18T03:20:08;68.02;;;33.58;;
57697;SDS011;43531;52.152;6.366;2022-12-18T03:20:44;69.92;;;37.12;;
57697;SDS011;43531;52.152;6.366;2022-12-18T03:21:23;66.14;;;36.60;;
57697;SDS011;43531;52.152;6.366;2022-12-18T03:21:58;71.16;;;35.20;;
57697;SDS011;43531;52.152;6.366;2022-12-18T03:22:41;68.72;;;33.24;;
57697;SDS011;43531;52.152;6.366;2022-12-18T03:23:18;69.12;;;33.90;;
57697;SDS011;43531;52.152;6.366;2022-12-18T03:23:57;69.56;;;34.22;;
57697;SDS011;43531;52.152;6.366;2022-12-18T03:24:30;71.16;;;33.78;;
57697;SDS011;43531;52.152;6.366;2022-12-18T03:25:04;62.28;;;33.84;;
57697;SDS011;43531;52.152;6.366;2022-12-18T03:25:39;71.76;;;35.56;;
57697;SDS011;43531;52.152;6.366;2022-12-18T03:26:14;69.76;;;35.50;;
57697;SDS011;43531;52.152;6.366;2022-12-18T03:26:48;76.32;;;37.26;;
57697;SDS011;43531;52.152;6.366;2022-12-18T03:27:23;64.76;;;34.48;;
57697;SDS011;43531;52.152;6.366;2022-12-18T03:27:58;69.16;;;34.24;;
57697;SDS011;43531;52.152;6.366;2022-12-18T03:28:31;73.10;;;34.08;;
57697;SDS011;43531;52.152;6.366;2022-12-18T03:29:10;62.98;;;33.08;;
57697;SDS011;43531;52.152;6.366;2022-12-18T03:29:46;71.70;;;37.80;;
57697;SDS011;43531;52.152;6.366;2022-12-18T03:30:24;69.40;;;35.90;;
57697;SDS011;43531;52.152;6.366;2022-12-18T03:30:58;64.44;;;34.22;;
57697;SDS011;43531;52.152;6.366;2022-12-18T03:31:32;64.04;;;34.06;;
57697;SDS011;43531;52.152;6.366;2022-12-18T03:32:50;74.12;;;35.90;;
57697;SDS011;43531;52.152;6.366;2022-12-18T03:33:08;62.78;;;35.06;;
57697;SDS011;43531;52.152;6.366;2022-12-18T03:33:54;64.82;;;32.30;;
57697;SDS011;43531;52.152;6.366;2022-12-18T03:34:34;75.44;;;34.16;;
57697;SDS011;43531;52.152;6.366;2022-12-18T03:35:10;62.56;;;32.02;;
57697;SDS011;43531;52.152;6.366;2022-12-18T03:35:43;60.64;;;31.60;;
57697;SDS011;43531;52.152;6.366;2022-12-18T03:36:16;62.36;;;32.40;;
57697;SDS011;43531;52.152;6.366;2022-12-18T03:36:48;61.62;;;32.92;;
57697;SDS011;43531;52.152;6.366;2022-12-18T03:37:20;62.24;;;34.44;;
57697;SDS011;43531;52.152;6.366;2022-12-18T03:37:56;66.84;;;34.18;;
57697;SDS011;43531;52.152;6.366;2022-12-18T03:38:28;75.96;;;35.60;;
57697;SDS011;43531;52.152;6.366;2022-12-18T03:39:02;65.08;;;35.82;;
57697;SDS011;43531;52.152;6.366;2022-12-18T03:39:37;79.44;;;37.06;;
57697;SDS011;43531;52.152;6.366;2022-12-18T03:40:09;63.82;;;33.38;;
57697;SDS011;43531;52.152;6.366;2022-12-18T03:40:46;66.34;;;34.12;;
57697;SDS011;43531;52.152;6.366;2022-12-18T03:41:31;60.52;;;31.24;;
57697;SDS011;43531;52.152;6.366;2022-12-18T03:42:48;57.26;;;29.68;;
57697;SDS011;43531;52.152;6.366;2022-12-18T03:43:38;54.78;;;31.00;;
57697;SDS011;43531;52.152;6.366;2022-12-18T03:44:36;61.88;;;31.82;;
57697;SDS011;43531;52.152;6.366;2022-12-18T03:46:02;57.74;;;32.76;;
57697;SDS011;43531;52.152;6.366;2022-12-18T03:47:49;61.72;;;30.94;;
57697;SDS011;43531;52.152;6.366;2022-12-18T03:48:41;58.84;;;31.20;;
57697;SDS011;43531;52.152;6.366;2022-12-18T03:50:20;69.74;;;32.50;;